Time;durP1;ratioP1;P1;durP2;ratioP2;P2;SDS_P1;SDS_P2;PMS_P1;PMS_P2;Temp;Humidity;BMP_temperature;BMP_pressure;BME280_temperature;BME280_humidity;BME280_pressure;Samples;Min_cycle;Max_cycle;Signal;HPM_P1;HPM_P2
2023/05/03 00:01:11;;;;;;;5.35;2.95;;;;;;;;;;5096033;28;20079;-62
2023/05/03 00:03:38;;;;;;;4.82;2.72;;;;;;;;;;5096119;28;20516;-62
2023/05/03 00:06:13;;;;;;;4.47;2.67;;;;;;;;;;5095955;28;20502;-62
2023/05/03 00:08:40;;;;;;;6.43;2.42;;;;;;;;;;5096116;28;20044;-62
2023/05/03 00:11:08;;;;;;;4.65;2.60;;;;;;;;;;5096235;28;20089;-62
2023/05/03 00:13:35;;;;;;;5.00;2.42;;;;;;;;;;5095942;28;20129;-62
2023/05/03 00:16:03;;;;;;;4.88;2.78;;;;;;;;;;5096068;28;20063;-62
2023/05/03 00:18:30;;;;;;;3.00;2.58;;;;;;;;;;5095616;28;20044;-62
2023/05/03 00:20:58;;;;;;;5.32;3.20;;;;;;;;;;5077524;28;20040;-62
2023/05/03 00:23:27;;;;;;;7.72;2.75;;;;;;;;;;5095753;28;20127;-62
2023/05/03 00:25:56;;;;;;;4.38;2.70;;;;;;;;;;5096032;28;20150;-62
2023/05/03 00:28:24;;;;;;;5.47;2.83;;;;;;;;;;5095538;28;20094;-62
2023/05/03 00:30:52;;;;;;;5.25;2.60;;;;;;;;;;5095613;28;20040;-62
2023/05/03 00:33:20;;;;;;;4.47;3.00;;;;;;;;;;5094153;28;20509;-62
2023/05/03 00:35:47;;;;;;;5.55;2.90;;;;;;;;;;5094105;28;20062;-62
2023/05/03 00:38:15;;;;;;;6.43;3.10;;;;;;;;;;5077495;28;20052;-62
2023/05/03 00:40:43;;;;;;;4.28;2.50;;;;;;;;;;5093479;28;20044;-62
2023/05/03 00:43:12;;;;;;;5.03;2.88;;;;;;;;;;5077177;28;20481;-62
2023/05/03 00:45:40;;;;;;;5.22;3.00;;;;;;;;;;5077023;28;20040;-62
2023/05/03 00:48:07;;;;;;;5.07;2.67;;;;;;;;;;5077153;28;20036;-62
2023/05/03 00:50:36;;;;;;;3.60;2.63;;;;;;;;;;5094139;28;20067;-62
2023/05/03 00:53:04;;;;;;;4.47;2.78;;;;;;;;;;5077172;28;20050;-62
2023/05/03 00:55:32;;;;;;;5.10;3.00;;;;;;;;;;5093789;28;20071;-62
2023/05/03 00:58:00;;;;;;;6.07;2.80;;;;;;;;;;5093047;28;20040;-62
2023/05/03 01:00:27;;;;;;;6.05;2.80;;;;;;;;;;5093300;28;20397;-62
2023/05/03 01:02:55;;;;;;;5.93;3.08;;;;;;;;;;5094959;28;20048;-62
2023/05/03 01:05:23;;;;;;;8.13;3.10;;;;;;;;;;5093585;28;20040;-62
2023/05/03 01:08:00;;;;;;;5.60;2.75;;;;;;;;;;5093667;28;20055;-62
2023/05/03 01:10:36;;;;;;;4.85;2.80;;;;;;;;;;5094890;28;20047;-62
2023/05/03 01:13:04;;;;;;;5.85;2.88;;;;;;;;;;5094771;28;20043;-62
2023/05/03 01:15:37;;;;;;;4.90;2.95;;;;;;;;;;5094756;28;20086;-62
2023/05/03 01:18:14;;;;;;;5.85;3.05;;;;;;;;;;5093271;28;20051;-62
2023/05/03 01:20:45;;;;;;;5.45;2.88;;;;;;;;;;5093240;28;20044;-62
2023/05/03 01:23:31;;;;;;;3.28;2.63;;;;;;;;;;5093256;28;20051;-62
2023/05/03 01:25:59;;;;;;;4.00;2.60;;;;;;;;;;5094404;28;20044;-62
2023/05/03 01:28:27;;;;;;;7.68;3.42;;;;;;;;;;5093152;28;20123;-62
2023/05/03 01:30:55;;;;;;;4.97;3.05;;;;;;;;;;5093202;28;20048;-62
2023/05/03 01:33:30;;;;;;;5.20;2.75;;;;;;;;;;5076471;28;20048;-62
2023/05/03 01:35:58;;;;;;;5.22;2.90;;;;;;;;;;5093097;28;20046;-62
2023/05/03 01:38:28;;;;;;;6.32;3.10;;;;;;;;;;5093029;28;20505;-62
2023/05/03 01:40:58;;;;;;;4.78;3.28;;;;;;;;;;5092937;28;20059;-62
2023/05/03 01:43:26;;;;;;;6.00;3.35;;;;;;;;;;5094077;28;20047;-62
2023/05/03 01:45:54;;;;;;;4.60;3.00;;;;;;;;;;5093986;28;20547;-62
2023/05/03 01:48:21;;;;;;;4.63;3.17;;;;;;;;;;5076212;28;20093;-62
2023/05/03 01:50:49;;;;;;;4.78;3.20;;;;;;;;;;5092784;28;20062;-62
2023/05/03 01:53:16;;;;;;;7.53;3.40;;;;;;;;;;5092631;28;20478;-62
2023/05/03 01:55:44;;;;;;;8.35;3.55;;;;;;;;;;5093807;28;20119;-62
2023/05/03 01:58:11;;;;;;;6.47;3.13;;;;;;;;;;5092612;28;20039;-63
2023/05/03 02:00:39;;;;;;;6.95;3.63;;;;;;;;;;5075498;28;20048;-63
2023/05/03 02:03:06;;;;;;;5.35;3.35;;;;;;;;;;5093751;28;20486;-62
2023/05/03 02:05:35;;;;;;;6.82;3.45;;;;;;;;;;5093673;28;20075;-62
2023/05/03 02:08:02;;;;;;;8.98;3.70;;;;;;;;;;5075672;28;20047;-62
2023/05/03 02:10:30;;;;;;;7.40;3.80;;;;;;;;;;5092007;28;20073;-62
2023/05/03 02:12:57;;;;;;;8.65;3.75;;;;;;;;;;5092406;28;20044;-63
2023/05/03 02:15:25;;;;;;;5.15;3.53;;;;;;;;;;5092407;28;20052;-62
2023/05/03 02:17:52;;;;;;;5.97;3.55;;;;;;;;;;5092240;28;20097;-63
2023/05/03 02:20:20;;;;;;;6.97;3.45;;;;;;;;;;5092077;28;20085;-62
2023/05/03 02:22:48;;;;;;;6.22;3.60;;;;;;;;;;5075395;28;20036;-62
2023/05/03 02:25:15;;;;;;;5.15;3.60;;;;;;;;;;5091898;28;20063;-63
2023/05/03 02:27:44;;;;;;;5.88;4.18;;;;;;;;;;5093712;28;20039;-63
2023/05/03 02:30:12;;;;;;;5.28;3.67;;;;;;;;;;5093220;28;20051;-63
2023/05/03 02:32:42;;;;;;;6.72;3.85;;;;;;;;;;5075069;28;20575;-62
2023/05/03 02:35:10;;;;;;;5.03;3.67;;;;;;;;;;5091733;28;20040;-63
2023/05/03 02:37:38;;;;;;;6.63;3.53;;;;;;;;;;5075390;28;20036;-63
2023/05/03 02:40:10;;;;;;;5.60;3.63;;;;;;;;;;5091734;28;20052;-62
2023/05/03 02:42:39;;;;;;;8.70;3.60;;;;;;;;;;5075144;28;20048;-63
2023/05/03 02:45:07;;;;;;;6.38;3.60;;;;;;;;;;5091891;28;20040;-62
2023/05/03 02:47:35;;;;;;;5.35;3.50;;;;;;;;;;5074867;28;20063;-62
2023/05/03 02:50:02;;;;;;;5.25;3.55;;;;;;;;;;5091784;28;20086;-63
2023/05/03 02:52:34;;;;;;;11.02;3.63;;;;;;;;;;5091554;28;20039;-63
2023/05/03 02:55:02;;;;;;;8.73;3.80;;;;;;;;;;5091663;28;20044;-63
2023/05/03 02:57:29;;;;;;;5.40;3.72;;;;;;;;;;5092784;28;20047;-63
2023/05/03 02:59:57;;;;;;;8.52;4.05;;;;;;;;;;5091548;28;20462;-63
2023/05/03 03:02:25;;;;;;;5.50;3.70;;;;;;;;;;5074558;28;20046;-63
2023/05/03 03:04:54;;;;;;;5.78;3.83;;;;;;;;;;5091416;28;20397;-63
2023/05/03 03:07:23;;;;;;;6.40;3.78;;;;;;;;;;5074801;28;20485;-63
2023/05/03 03:09:55;;;;;;;7.97;3.85;;;;;;;;;;5091567;28;20127;-63
2023/05/03 03:12:24;;;;;;;5.75;3.50;;;;;;;;;;5074624;28;20040;-63
2023/05/03 03:14:52;;;;;;;5.50;3.65;;;;;;;;;;5074556;28;20040;-63
2023/05/03 03:17:20;;;;;;;8.32;4.47;;;;;;;;;;5075154;28;20052;-63
2023/05/03 03:19:47;;;;;;;8.55;4.32;;;;;;;;;;5091519;28;20036;-63
2023/05/03 03:22:15;;;;;;;9.07;5.82;;;;;;;;;;5090581;28;20040;-62
2023/05/03 03:24:44;;;;;;;11.85;6.80;;;;;;;;;;5074886;28;20038;-62
2023/05/03 03:27:12;;;;;;;12.48;8.23;;;;;;;;;;5091278;28;20078;-62
2023/05/03 03:29:40;;;;;;;11.85;7.70;;;;;;;;;;5091144;28;20040;-62
2023/05/03 03:32:10;;;;;;;10.35;6.82;;;;;;;;;;5091326;28;20578;-62
2023/05/03 03:34:38;;;;;;;17.25;6.70;;;;;;;;;;5091399;28;20076;-62
2023/05/03 03:37:06;;;;;;;10.85;6.72;;;;;;;;;;5091248;28;20401;-63
2023/05/03 03:39:38;;;;;;;9.70;6.15;;;;;;;;;;5074502;28;20573;-62
2023/05/03 03:42:07;;;;;;;9.48;6.03;;;;;;;;;;5091339;28;20064;-62
2023/05/03 03:44:35;;;;;;;8.82;5.60;;;;;;;;;;5074387;28;20082;-62
2023/05/03 03:47:02;;;;;;;10.35;5.68;;;;;;;;;;5091079;28;20106;-62
2023/05/03 03:49:30;;;;;;;6.93;4.90;;;;;;;;;;5092297;28;20029;-61
2023/05/03 03:51:57;;;;;;;8.32;5.50;;;;;;;;;;5090822;28;20127;-61
2023/05/03 03:54:25;;;;;;;8.82;5.60;;;;;;;;;;5091032;28;20042;-61
2023/05/03 03:56:52;;;;;;;8.80;5.30;;;;;;;;;;5091212;28;20098;-61
2023/05/03 03:59:20;;;;;;;12.45;5.78;;;;;;;;;;5090892;28;20036;-62
2023/05/03 04:01:48;;;;;;;9.25;5.22;;;;;;;;;;5090482;28;20067;-62
2023/05/03 04:04:16;;;;;;;9.95;6.25;;;;;;;;;;5091090;28;20040;-63
2023/05/03 04:06:44;;;;;;;13.20;8.55;;;;;;;;;;5090794;28;20040;-63
2023/05/03 04:09:16;;;;;;;13.25;8.25;;;;;;;;;;5107836;28;20136;-61
2023/05/03 04:11:45;;;;;;;11.13;7.72;;;;;;;;;;5090885;28;20036;-61
2023/05/03 04:14:12;;;;;;;14.38;8.48;;;;;;;;;;5090928;28;20465;-62
2023/05/03 04:16:41;;;;;;;11.77;8.20;;;;;;;;;;5107755;28;20048;-62
2023/05/03 04:19:10;;;;;;;13.18;8.07;;;;;;;;;;5107544;28;20146;-63
2023/05/03 04:21:40;;;;;;;15.00;8.40;;;;;;;;;;5107864;28;20052;-63
2023/05/03 04:24:08;;;;;;;15.63;9.40;;;;;;;;;;5107505;28;20107;-63
2023/05/03 04:26:36;;;;;;;13.00;8.70;;;;;;;;;;5090574;28;20044;-63
2023/05/03 04:29:11;;;;;;;17.48;9.98;;;;;;;;;;5090410;28;20118;-62
2023/05/03 04:31:41;;;;;;;17.90;10.30;;;;;;;;;;5107425;28;20063;-63
2023/05/03 04:34:09;;;;;;;17.98;9.15;;;;;;;;;;5110147;28;20040;-63
2023/05/03 04:36:37;;;;;;;15.27;7.38;;;;;;;;;;5094170;28;20036;-62
2023/05/03 04:39:06;;;;;;;10.43;6.70;;;;;;;;;;5094267;28;20071;-63
2023/05/03 04:41:34;;;;;;;16.15;6.22;;;;;;;;;;5093913;28;20090;-63
2023/05/03 04:44:02;;;;;;;10.13;6.05;;;;;;;;;;5077294;28;20074;-61
2023/05/03 04:46:30;;;;;;;7.75;5.57;;;;;;;;;;5101942;28;20425;-62
2023/05/03 04:48:57;;;;;;;7.90;5.20;;;;;;;;;;5095453;28;20041;-61
2023/05/03 04:51:27;;;;;;;9.90;5.40;;;;;;;;;;5093224;28;20074;-61
2023/05/03 04:53:58;;;;;;;8.00;5.80;;;;;;;;;;5093898;28;20497;-62
2023/05/03 04:56:26;;;;;;;9.23;5.47;;;;;;;;;;5093596;28;20085;-62
2023/05/03 04:59:02;;;;;;;;;;;;;;;;;;5077336;28;20127;-62
2023/05/03 05:01:30;;;;;;;13.45;5.50;;;;;;;;;;5095147;28;20347;-62
2023/05/03 05:04:01;;;;;;;10.63;6.00;;;;;;;;;;5093065;28;20056;-62
2023/05/03 05:06:36;;;;;;;7.32;5.60;;;;;;;;;;5093663;28;20079;-63
2023/05/03 05:09:06;;;;;;;8.88;5.70;;;;;;;;;;5093698;28;20068;-64
2023/05/03 05:11:34;;;;;;;11.40;5.80;;;;;;;;;;5093448;28;20055;-63
2023/05/03 05:14:02;;;;;;;12.13;6.30;;;;;;;;;;5076929;28;20047;-63
2023/05/03 05:16:30;;;;;;;10.50;6.57;;;;;;;;;;5076787;28;20067;-64
2023/05/03 05:18:57;;;;;;;8.27;6.03;;;;;;;;;;5093289;28;20044;-63
2023/05/03 05:21:27;;;;;;;9.05;6.18;;;;;;;;;;5093612;28;20109;-63
2023/05/03 05:23:55;;;;;;;9.65;6.30;;;;;;;;;;5076717;28;20038;-63
2023/05/03 05:26:23;;;;;;;10.80;6.40;;;;;;;;;;5093394;28;20048;-63
2023/05/03 05:28:50;;;;;;;10.07;6.55;;;;;;;;;;5093621;28;20040;-63
2023/05/03 05:31:18;;;;;;;10.20;5.85;;;;;;;;;;5094650;28;20042;-63
2023/05/03 05:33:46;;;;;;;10.57;6.40;;;;;;;;;;5093345;28;20047;-63
2023/05/03 05:36:13;;;;;;;11.35;6.60;;;;;;;;;;5093052;28;20043;-62
2023/05/03 05:38:42;;;;;;;8.82;5.95;;;;;;;;;;5093026;28;20040;-63
2023/05/03 05:41:09;;;;;;;12.15;6.38;;;;;;;;;;5092931;28;20410;-63
2023/05/03 05:43:39;;;;;;;8.50;6.32;;;;;;;;;;5092661;28;20151;-63
2023/05/03 05:46:07;;;;;;;12.82;6.20;;;;;;;;;;5091874;28;20071;-63
2023/05/03 05:48:35;;;;;;;9.20;6.13;;;;;;;;;;5093301;28;20055;-63
2023/05/03 05:51:02;;;;;;;11.25;6.13;;;;;;;;;;5092755;28;20487;-63
2023/05/03 05:53:30;;;;;;;12.23;6.15;;;;;;;;;;5092757;28;20043;-63
2023/05/03 05:56:00;;;;;;;11.73;6.00;;;;;;;;;;5092742;28;20051;-63
2023/05/03 05:58:31;;;;;;;8.52;5.70;;;;;;;;;;5092605;28;20509;-63
2023/05/03 06:01:00;;;;;;;8.05;5.78;;;;;;;;;;5093633;28;20124;-63
2023/05/03 06:03:30;;;;;;;12.50;6.03;;;;;;;;;;5075634;28;20043;-63
2023/05/03 06:06:00;;;;;;;8.57;5.53;;;;;;;;;;5092502;28;20054;-63
2023/05/03 06:08:28;;;;;;;8.93;6.40;;;;;;;;;;5093713;28;20044;-63
2023/05/03 06:10:55;;;;;;;10.07;6.15;;;;;;;;;;5093936;28;20048;-63
2023/05/03 06:13:25;;;;;;;8.90;5.68;;;;;;;;;;5092741;28;20539;-63
2023/05/03 06:15:52;;;;;;;8.48;6.22;;;;;;;;;;5092276;28;20131;-63
2023/05/03 06:18:20;;;;;;;9.45;5.93;;;;;;;;;;5075436;28;20048;-62
2023/05/03 06:20:50;;;;;;;10.95;6.60;;;;;;;;;;5092467;28;20067;-63
2023/05/03 06:23:19;;;;;;;9.85;6.03;;;;;;;;;;5075371;28;20051;-62
2023/05/03 06:25:47;;;;;;;10.32;6.40;;;;;;;;;;5092334;28;20044;-63
2023/05/03 06:28:16;;;;;;;8.18;6.05;;;;;;;;;;5092073;28;20071;-63
2023/05/03 06:30:48;;;;;;;16.38;6.30;;;;;;;;;;5074952;28;20386;-63
2023/05/03 06:33:16;;;;;;;14.05;6.35;;;;;;;;;;5091695;28;20052;-63
2023/05/03 06:35:46;;;;;;;8.98;6.22;;;;;;;;;;5091918;28;20051;-63
2023/05/03 06:38:15;;;;;;;9.50;6.57;;;;;;;;;;5092030;28;20498;-63
2023/05/03 06:40:44;;;;;;;10.98;6.18;;;;;;;;;;5093003;28;20517;-63
2023/05/03 06:43:12;;;;;;;10.13;6.47;;;;;;;;;;5093548;28;20044;-63
2023/05/03 06:45:57;;;;;;;10.00;6.10;;;;;;;;;;5093624;28;20051;-63
2023/05/03 06:48:26;;;;;;;11.35;6.05;;;;;;;;;;5091721;28;20048;-63
2023/05/03 06:50:54;;;;;;;14.18;6.43;;;;;;;;;;5091801;28;20040;-63
2023/05/03 06:53:22;;;;;;;9.55;6.20;;;;;;;;;;5092066;28;20123;-63
2023/05/03 06:55:59;;;;;;;9.68;5.97;;;;;;;;;;5091134;28;20048;-63
2023/05/03 06:58:26;;;;;;;8.65;5.90;;;;;;;;;;5092570;28;20066;-64
2023/05/03 07:00:54;;;;;;;7.18;5.68;;;;;;;;;;5092884;28;20050;-64
2023/05/03 07:03:21;;;;;;;8.30;5.75;;;;;;;;;;5093075;28;20429;-63
2023/05/03 07:05:49;;;;;;;9.13;5.60;;;;;;;;;;5092664;28;20048;-63
2023/05/03 07:08:17;;;;;;;7.88;5.38;;;;;;;;;;5091781;28;20052;-64
2023/05/03 07:10:44;;;;;;;9.18;5.70;;;;;;;;;;5092659;28;20036;-63
2023/05/03 07:13:13;;;;;;;10.25;5.80;;;;;;;;;;5092424;28;20093;-63
2023/05/03 07:15:40;;;;;;;7.15;5.60;;;;;;;;;;5074953;28;20056;-63
2023/05/03 07:18:08;;;;;;;7.38;5.30;;;;;;;;;;5092492;28;20036;-63
2023/05/03 07:20:35;;;;;;;9.30;4.85;;;;;;;;;;5092464;28;20494;-63
2023/05/03 07:23:03;;;;;;;8.48;5.18;;;;;;;;;;5092759;28;20456;-63
2023/05/03 07:25:30;;;;;;;9.30;5.82;;;;;;;;;;5092461;28;20048;-63
2023/05/03 07:27:58;;;;;;;7.70;5.50;;;;;;;;;;5075044;28;20075;-63
2023/05/03 07:30:25;;;;;;;8.65;5.38;;;;;;;;;;5092388;28;20371;-63
2023/05/03 07:32:53;;;;;;;9.40;5.28;;;;;;;;;;5092524;28;20048;-63
2023/05/03 07:35:25;;;;;;;7.57;6.65;;;;;;;;;;5092302;28;20040;-64
2023/05/03 07:37:53;;;;;;;10.05;5.80;;;;;;;;;;5093025;28;20048;-62
2023/05/03 07:40:20;;;;;;;6.93;5.50;;;;;;;;;;5074724;28;20044;-62
2023/05/03 07:42:47;;;;;;;9.07;5.93;;;;;;;;;;5090942;28;20486;-63
2023/05/03 07:45:15;;;;;;;8.32;5.18;;;;;;;;;;5092329;28;20036;-62
2023/05/03 07:47:42;;;;;;;10.40;5.65;;;;;;;;;;5074164;28;20051;-63
2023/05/03 07:50:10;;;;;;;14.52;6.05;;;;;;;;;;5092370;28;20518;-62
2023/05/03 07:52:38;;;;;;;7.55;5.38;;;;;;;;;;5074116;28;20047;-64
2023/05/03 07:55:06;;;;;;;10.25;6.05;;;;;;;;;;5092221;28;20036;-62
2023/05/03 07:57:33;;;;;;;12.73;6.30;;;;;;;;;;5092278;28;20425;-62
2023/05/03 08:00:03;;;;;;;10.90;6.22;;;;;;;;;;5092281;28;20055;-62
2023/05/03 08:02:38;;;;;;;9.18;5.80;;;;;;;;;;5092406;28;20102;-62
2023/05/03 08:05:07;;;;;;;9.30;6.30;;;;;;;;;;5092412;28;20068;-62
2023/05/03 08:07:35;;;;;;;8.85;5.93;;;;;;;;;;5092475;28;20044;-63
2023/05/03 08:10:03;;;;;;;9.63;6.10;;;;;;;;;;5096035;28;20094;-61
2023/05/03 08:12:31;;;;;;;10.07;6.75;;;;;;;;;;5077711;28;20040;-62
2023/05/03 08:14:58;;;;;;;12.25;7.63;;;;;;;;;;5095929;28;20131;-62
2023/05/03 08:17:26;;;;;;;13.32;7.72;;;;;;;;;;5095902;28;20040;-62
2023/05/03 08:19:55;;;;;;;9.48;5.85;;;;;;;;;;5095903;28;20429;-62
2023/05/03 08:22:25;;;;;;;7.45;6.13;;;;;;;;;;5096532;28;20112;-62
2023/05/03 08:24:55;;;;;;;10.75;7.25;;;;;;;;;;5096011;28;20051;-63
2023/05/03 08:27:24;;;;;;;9.35;6.18;;;;;;;;;;5095697;28;20482;-62
2023/05/03 08:29:52;;;;;;;9.18;5.72;;;;;;;;;;5095869;28;20127;-63
2023/05/03 08:32:21;;;;;;;9.07;5.90;;;;;;;;;;5095644;28;20079;-63
2023/05/03 08:34:49;;;;;;;9.32;5.63;;;;;;;;;;5095592;28;20043;-62
2023/05/03 08:37:16;;;;;;;10.13;6.82;;;;;;;;;;5095596;28;20050;-62
2023/05/03 08:39:46;;;;;;;57.53;16.48;;;;;;;;;;5095741;28;20040;-62
2023/05/03 08:42:13;;;;;;;8.93;6.15;;;;;;;;;;5095452;28;20044;-61
2023/05/03 08:44:46;;;;;;;8.88;5.75;;;;;;;;;;5095415;28;20044;-62
2023/05/03 08:47:18;;;;;;;9.80;5.70;;;;;;;;;;5094119;28;20043;-62
2023/05/03 08:49:46;;;;;;;9.85;5.50;;;;;;;;;;5095258;28;20042;-62
2023/05/03 08:52:19;;;;;;;7.35;5.60;;;;;;;;;;5095187;28;20036;-62
2023/05/03 08:54:48;;;;;;;7.03;5.30;;;;;;;;;;5095208;28;20040;-62
2023/05/03 08:57:16;;;;;;;6.30;5.10;;;;;;;;;;5095614;28;20401;-62
2023/05/03 08:59:52;;;;;;;8.95;5.60;;;;;;;;;;5093977;28;20059;-62
2023/05/03 09:02:20;;;;;;;8.27;5.32;;;;;;;;;;5095022;28;20405;-62
2023/05/03 09:04:47;;;;;;;12.93;6.35;;;;;;;;;;5076875;28;20051;-62
2023/05/03 09:07:15;;;;;;;8.15;5.57;;;;;;;;;;5094841;28;20093;-62
2023/05/03 09:09:43;;;;;;;7.78;4.80;;;;;;;;;;5095341;28;20040;-62
2023/05/03 09:12:33;;;;;;;8.52;5.30;;;;;;;;;;5094773;28;20048;-62
2023/05/03 09:15:02;;;;;;;6.70;4.45;;;;;;;;;;5094700;28;20040;-62
2023/05/03 09:17:30;;;;;;;7.32;4.53;;;;;;;;;;5094641;28;20501;-62
2023/05/03 09:19:58;;;;;;;10.77;6.68;;;;;;;;;;5093683;28;20200;-61
2023/05/03 09:22:30;;;;;;;10.45;8.18;;;;;;;;;;5094782;28;20047;-62
2023/05/03 09:24:59;;;;;;;5.72;4.35;;;;;;;;;;5094694;28;20036;-62
2023/05/03 09:27:27;;;;;;;6.97;4.93;;;;;;;;;;5093222;28;20375;-62
2023/05/03 09:29:55;;;;;;;6.47;4.18;;;;;;;;;;5094565;28;20044;-62
2023/05/03 09:32:23;;;;;;;6.78;4.90;;;;;;;;;;5094455;28;20436;-62
2023/05/03 09:34:51;;;;;;;10.40;5.22;;;;;;;;;;5076088;28;20044;-61
2023/05/03 09:37:35;;;;;;;5.10;4.40;;;;;;;;;;5094322;28;20097;-63
2023/05/03 09:40:10;;;;;;;9.82;5.30;;;;;;;;;;5094598;28;20111;-61
2023/05/03 09:42:42;;;;;;;7.10;4.32;;;;;;;;;;5094259;28;20074;-62
2023/05/03 09:45:10;;;;;;;6.93;4.65;;;;;;;;;;5094206;28;20044;-62
2023/05/03 09:47:51;;;;;;;6.88;4.75;;;;;;;;;;5094137;28;20039;-62
2023/05/03 09:50:19;;;;;;;8.05;5.03;;;;;;;;;;5094049;28;20032;-62
2023/05/03 09:52:46;;;;;;;7.78;4.70;;;;;;;;;;5094093;28;20044;-62
2023/05/03 09:55:16;;;;;;;9.48;4.80;;;;;;;;;;5092603;28;20044;-61
2023/05/03 09:57:46;;;;;;;8.25;4.90;;;;;;;;;;5093905;28;20032;-62
2023/05/03 10:00:15;;;;;;;7.88;4.63;;;;;;;;;;5093762;28;20047;-62
2023/05/03 10:02:43;;;;;;;5.78;4.13;;;;;;;;;;5093785;28;20383;-62
2023/05/03 10:05:12;;;;;;;7.72;4.57;;;;;;;;;;5093720;28;20052;-62
2023/05/03 10:07:40;;;;;;;6.63;4.45;;;;;;;;;;5092568;28;20051;-62
2023/05/03 10:10:08;;;;;;;9.73;5.13;;;;;;;;;;5093670;28;20040;-62
2023/05/03 10:12:36;;;;;;;5.60;5.05;;;;;;;;;;5093848;28;20406;-62
2023/05/03 10:15:06;;;;;;;7.78;5.30;;;;;;;;;;5092283;28;20581;-62
2023/05/03 10:17:38;;;;;;;7.93;4.60;;;;;;;;;;5092315;28;20048;-62
2023/05/03 10:20:14;;;;;;;7.45;4.90;;;;;;;;;;5093567;28;20036;-62
2023/05/03 10:23:20;;;;;;;6.50;4.63;;;;;;;;;;5093662;28;20056;-62
2023/05/03 10:25:48;;;;;;;;;;;;;;;;;;5011789;28;20056;-62
2023/05/03 10:28:15;;;;;;;12.20;4.75;;;;;;;;;;5011284;28;20375;-62
2023/05/03 10:30:43;;;;;;;7.85;5.10;;;;;;;;;;5052012;28;20052;-62
2023/05/03 10:33:13;;;;;;;6.65;5.00;;;;;;;;;;5093332;28;20123;-62
2023/05/03 10:35:53;;;;;;;8.30;4.57;;;;;;;;;;5093251;28;20067;-62
2023/05/03 10:38:21;;;;;;;8.85;4.57;;;;;;;;;;5093206;28;20122;-62
2023/05/03 10:40:49;;;;;;;6.82;4.47;;;;;;;;;;5093453;28;20040;-62
2023/05/03 10:43:29;;;;;;;8.68;4.88;;;;;;;;;;5093116;28;20066;-62
2023/05/03 10:45:57;;;;;;;6.70;4.93;;;;;;;;;;5092177;28;20466;-62
2023/05/03 10:48:25;;;;;;;9.00;5.40;;;;;;;;;;5092929;28;20048;-62
2023/05/03 10:50:52;;;;;;;10.38;5.00;;;;;;;;;;5091563;28;20404;-62
2023/05/03 10:53:35;;;;;;;6.82;4.10;;;;;;;;;;5093263;28;20044;-62
2023/05/03 10:56:14;;;;;;;6.38;4.57;;;;;;;;;;5092971;28;20490;-62
2023/05/03 10:58:49;;;;;;;7.60;3.90;;;;;;;;;;5091515;28;20058;-62
2023/05/03 11:01:18;;;;;;;9.23;3.88;;;;;;;;;;5092776;28;20147;-62
2023/05/03 11:03:45;;;;;;;7.43;3.70;;;;;;;;;;5092838;28;20040;-63
2023/05/03 11:06:35;;;;;;;8.13;4.00;;;;;;;;;;5092746;28;20149;-62
2023/05/03 11:09:07;;;;;;;5.85;3.50;;;;;;;;;;5092837;28;20443;-63
2023/05/03 11:11:36;;;;;;;7.13;3.47;;;;;;;;;;5092826;28;20043;-62
2023/05/03 11:14:03;;;;;;;7.05;3.55;;;;;;;;;;5092836;28;20063;-62
2023/05/03 11:16:31;;;;;;;5.90;3.10;;;;;;;;;;5093155;28;20044;-62
2023/05/03 11:18:59;;;;;;;6.35;3.28;;;;;;;;;;5092831;28;20401;-62
2023/05/03 11:21:27;;;;;;;5.63;2.80;;;;;;;;;;5092585;28;20040;-62
2023/05/03 11:23:54;;;;;;;6.45;3.30;;;;;;;;;;5092537;28;20405;-63
2023/05/03 11:26:24;;;;;;;7.00;2.83;;;;;;;;;;5091419;28;20097;-63
2023/05/03 11:28:53;;;;;;;11.18;2.72;;;;;;;;;;5092587;28;20040;-62
2023/05/03 11:31:21;;;;;;;4.18;2.58;;;;;;;;;;5092601;28;20047;-62
2023/05/03 11:33:50;;;;;;;4.38;2.60;;;;;;;;;;5092975;28;20214;-62
2023/05/03 11:36:17;;;;;;;5.93;3.17;;;;;;;;;;5092471;28;20067;-62
2023/05/03 11:38:45;;;;;;;3.67;2.60;;;;;;;;;;5092496;28;20074;-63
2023/05/03 11:41:15;;;;;;;5.40;2.72;;;;;;;;;;5092552;28;20094;-62
2023/05/03 11:43:43;;;;;;;7.20;3.03;;;;;;;;;;5094812;28;20051;-62
2023/05/03 11:46:11;;;;;;;7.55;3.20;;;;;;;;;;5096717;28;20036;-62
2023/05/03 11:48:39;;;;;;;6.85;3.40;;;;;;;;;;5095204;28;20032;-62
2023/05/03 11:51:09;;;;;;;8.15;2.42;;;;;;;;;;5096360;28;20051;-62
2023/05/03 11:53:38;;;;;;;7.57;2.90;;;;;;;;;;5096312;28;20119;-63
2023/05/03 11:56:12;;;;;;;8.32;2.83;;;;;;;;;;5096166;28;20097;-63
2023/05/03 11:58:50;;;;;;;5.43;2.95;;;;;;;;;;5096283;28;20559;-61
2023/05/03 12:01:18;;;;;;;5.32;2.80;;;;;;;;;;5096170;28;20063;-61
2023/05/03 12:03:48;;;;;;;4.40;2.83;;;;;;;;;;5096129;28;20044;-62
2023/05/03 12:06:16;;;;;;;4.78;3.10;;;;;;;;;;5096161;28;20055;-62
2023/05/03 12:08:45;;;;;;;6.25;2.92;;;;;;;;;;5096026;28;20086;-63
2023/05/03 12:11:13;;;;;;;4.35;3.08;;;;;;;;;;5096031;28;20046;-62
2023/05/03 12:13:43;;;;;;;9.45;2.80;;;;;;;;;;5094767;28;20098;-63
2023/05/03 12:16:13;;;;;;;5.10;3.00;;;;;;;;;;5077772;28;20032;-62
2023/05/03 12:18:50;;;;;;;6.63;3.22;;;;;;;;;;5096078;28;20070;-62
2023/05/03 12:21:23;;;;;;;4.80;2.80;;;;;;;;;;5095798;28;20035;-62
2023/05/03 12:23:53;;;;;;;5.63;3.83;;;;;;;;;;5094510;28;20497;-62
2023/05/03 12:26:24;;;;;;;6.93;2.85;;;;;;;;;;5096038;28;20044;-62
2023/05/03 12:28:52;;;;;;;4.60;2.78;;;;;;;;;;5096109;28;20047;-62
2023/05/03 12:31:23;;;;;;;5.90;2.78;;;;;;;;;;5095832;28;20056;-62
2023/05/03 12:33:51;;;;;;;4.75;2.40;;;;;;;;;;5095866;28;20039;-62
2023/05/03 12:36:22;;;;;;;8.07;2.90;;;;;;;;;;5094618;28;20036;-62
2023/05/03 12:38:52;;;;;;;7.55;2.60;;;;;;;;;;5095835;28;20123;-62
2023/05/03 12:41:26;;;;;;;5.53;2.50;;;;;;;;;;5095670;28;20468;-63
2023/05/03 12:44:13;;;;;;;3.67;2.60;;;;;;;;;;5095566;28;20059;-62
2023/05/03 12:46:43;;;;;;;4.15;2.58;;;;;;;;;;5095626;28;20051;-62
2023/05/03 12:49:12;;;;;;;4.05;2.25;;;;;;;;;;5095416;28;20050;-62
2023/05/03 12:51:42;;;;;;;3.90;2.63;;;;;;;;;;5095397;28;20040;-62
2023/05/03 12:54:29;;;;;;;6.53;2.75;;;;;;;;;;5080429;28;20040;-62
2023/05/03 12:57:02;;;;;;;3.83;2.45;;;;;;;;;;5095270;28;20044;-62
2023/05/03 12:59:36;;;;;;;3.92;2.30;;;;;;;;;;5095250;28;20494;-63
2023/05/03 13:02:09;;;;;;;3.35;2.20;;;;;;;;;;5095138;28;20051;-63
2023/05/03 13:04:40;;;;;;;5.78;2.30;;;;;;;;;;5095436;28;20051;-62
2023/05/03 13:07:15;;;;;;;2.50;2.03;;;;;;;;;;5077746;28;20081;-63
2023/05/03 13:09:47;;;;;;;4.43;2.40;;;;;;;;;;5095294;28;20569;-63
2023/05/03 13:12:20;;;;;;;3.53;2.20;;;;;;;;;;5094842;28;20036;-62
2023/05/03 13:14:48;;;;;;;6.18;2.22;;;;;;;;;;5095150;28;20068;-61
2023/05/03 13:17:16;;;;;;;4.78;2.50;;;;;;;;;;5094917;28;20421;-60
2023/05/03 13:19:46;;;;;;;6.70;2.25;;;;;;;;;;5093640;28;20052;-61
2023/05/03 13:22:13;;;;;;;4.85;2.22;;;;;;;;;;5094673;28;20504;-62
2023/05/03 13:24:42;;;;;;;2.78;2.42;;;;;;;;;;5093523;28;20126;-63
2023/05/03 13:27:10;;;;;;;5.45;2.20;;;;;;;;;;5094793;28;20058;-62
2023/05/03 13:29:38;;;;;;;5.47;2.90;;;;;;;;;;5076716;28;20113;-63
2023/05/03 13:32:06;;;;;;;6.03;2.20;;;;;;;;;;5094843;28;20375;-63
2023/05/03 13:34:35;;;;;;;3.65;2.05;;;;;;;;;;5093409;28;20134;-62
2023/05/03 13:37:05;;;;;;;7.43;2.33;;;;;;;;;;5094585;28;20448;-62
2023/05/03 13:39:33;;;;;;;15.20;2.70;;;;;;;;;;5094352;28;20071;-62
2023/05/03 13:42:01;;;;;;;4.57;2.10;;;;;;;;;;5094347;28;20036;-62
2023/05/03 13:44:28;;;;;;;3.30;2.13;;;;;;;;;;5094167;28;20498;-62
2023/05/03 13:46:56;;;;;;;6.72;3.10;;;;;;;;;;5094245;28;20486;-62
2023/05/03 13:49:24;;;;;;;6.55;2.20;;;;;;;;;;5094071;28;20074;-62
2023/05/03 13:51:53;;;;;;;3.72;1.70;;;;;;;;;;5094156;28;20432;-62
2023/05/03 13:54:20;;;;;;;4.35;2.00;;;;;;;;;;5075767;28;20044;-62
2023/05/03 13:56:48;;;;;;;7.38;2.30;;;;;;;;;;5094036;28;20048;-63
2023/05/03 13:59:15;;;;;;;3.88;1.90;;;;;;;;;;5093410;28;20093;-63
2023/05/03 14:01:43;;;;;;;3.00;2.10;;;;;;;;;;5093880;28;20077;-63
2023/05/03 14:04:10;;;;;;;5.57;2.30;;;;;;;;;;5093971;28;20040;-62
2023/05/03 14:06:38;;;;;;;2.45;1.88;;;;;;;;;;5093612;28;20044;-62
2023/05/03 14:09:08;;;;;;;5.85;2.70;;;;;;;;;;5075956;28;20490;-62
2023/05/03 14:11:36;;;;;;;3.55;2.72;;;;;;;;;;5076011;28;20036;-63
2023/05/03 14:14:04;;;;;;;6.82;4.15;;;;;;;;;;5092995;28;20473;-62
2023/05/03 14:16:34;;;;;;;4.20;1.98;;;;;;;;;;5093784;28;20095;-62
2023/05/03 14:19:12;;;;;;;3.90;2.10;;;;;;;;;;5093779;28;20044;-65
2023/05/03 14:21:42;;;;;;;6.18;1.90;;;;;;;;;;5089673;28;20048;-63
2023/05/03 14:24:12;;;;;;;7.63;2.05;;;;;;;;;;5085449;28;20565;-63
2023/05/03 14:26:40;;;;;;;4.53;1.80;;;;;;;;;;5083791;28;20078;-63
2023/05/03 14:29:08;;;;;;;6.90;2.25;;;;;;;;;;5082186;28;20048;-63
2023/05/03 14:31:35;;;;;;;5.28;2.33;;;;;;;;;;5082318;28;20040;-64
2023/05/03 14:34:03;;;;;;;3.75;1.95;;;;;;;;;;5083561;28;20502;-63
2023/05/03 14:36:34;;;;;;;4.35;1.98;;;;;;;;;;5082696;28;20441;-63
2023/05/03 14:39:03;;;;;;;4.82;1.90;;;;;;;;;;5080157;28;20136;-64
2023/05/03 14:41:34;;;;;;;4.68;1.90;;;;;;;;;;5082709;28;20036;-64
2023/05/03 14:44:01;;;;;;;4.53;1.85;;;;;;;;;;5092667;28;20043;-63
2023/05/03 14:46:29;;;;;;;4.57;1.48;;;;;;;;;;5092998;28;20070;-63
2023/05/03 14:48:58;;;;;;;3.78;2.20;;;;;;;;;;5083731;28;20048;-63
2023/05/03 14:51:26;;;;;;;8.00;1.88;;;;;;;;;;5072808;28;20094;-60
2023/05/03 14:53:54;;;;;;;8.60;2.10;;;;;;;;;;5072295;28;20125;-61